SBOSBO TIA / LATI
Speedbird OnlineSpeedbird Online TIA / LATI

Tirana International Airport Mother Teresa
22:48 18°C

Location Tirana, Albania
Latitude: 41.4146995544
Longitude: 19.7206001282
Local Time 22:48 on 29 May 2024
UTC +2 hours (Europe/Tirane)
Currency £1 equals ALL 118.37
METAR LATI 292020Z 14004KT 110V170 CAVOK 18/16 Q1012 NOSIG
TAF TAF LATI 291700Z 2918/3018 VRB03KT CAVOK TX27/3012Z TN14/3004Z PROB30 TEMPO 2923/3004 3000 BCFG TEMPO 3010/3017 26010KT FEW040CB BKN070 PROB30 TEMPO 3012/3016 -TSRA
Weather As Of 29 May 2024 22:48
Description Clear sky
Wind 7 km/h from South-East (140°)
Cloud Cover 0%
Precipitation Rain: none, Snow: none
Sunrise 05:11
Sunset 20:05
NOTAM 9 active NOTAM
Rotations During the last 90 days there were
55 flights from LHR
54 flights to LHR
Lounges Tirana Airport Business Class Lounge , International terminal
Web Airport Website | Wikipedia
Codes IATA: TIA
ICAO: LATI
Altitude 38 Meter / 126 Feet
Distance 1,864 KM / 1,158 Miles
from London.
Runways
RunwayLength (m)Surface
172750Asphalt
352750Asphalt
Radio
TypeDescriptionFrequency
ACCACC127.5
APPAPP133.15
TWRTWR122.5
Live ATC



Support Speedbird Online

© 2017-2024 Speedbird Online